Current Conditions
Overcast
Conditions



Pressure
29.98 (inHG) - 1015.22 (mb)
Visibility

9.9 (miles) - 16.0 (km)
Temperature
63  °F
Temperature
55  °F
Dewpoint
77  %
 Humidity
Wind Speed
0  mph
0  kts
0  km/h
0  m/s
Wind Direction
N
45°
E
90°
135°
S
180°
225°
W
270°
315°
Calm

Due North
Airport Data
KNUQ
Moffett Federal Airfield
Metar :KNUQ 251535Z AUTO 00000KT 10SM OVC013 17/13 A2998 RMK AO2
Sun 25th July 08:35 am
Raw Metar Info
Raw METAR is the most common format in the world for the transmission of observational weather data. It is highly standardized through the International Civil Aviation Organization (ICAO), which allows it to be understood throughout most of the world.
API Info
Data Provided by
https://www.checkwx.com/weather/KNUQ

Aviation Weather providing METAR, TAF, AIRMET, SIGMET and OUTLOOK Weather Reports
© Info
CSS/SVG/PHP scripts were developed by weather34.com for use in the weather34 template © 2015-2021

Guide Info provided by Metar-Wikipedia